Time;durP1;ratioP1;P1;durP2;ratioP2;P2;SDS_P1;SDS_P2;PMS_P1;PMS_P2;Temp;Humidity;BMP_temperature;BMP_pressure;BME280_temperature;BME280_humidity;BME280_pressure;Samples;Min_cycle;Max_cycle;Signal;HPM_P1;HPM_P2
2024/02/19 00:01:15;;;;;;;11.80;5.20;;;;;;;-10.75;100.00;139678.52;106675;1269;25415;-65
2024/02/19 00:04:03;;;;;;;12.30;5.20;;;;;;;-10.77;100.00;139671.63;106573;1268;25340;-65
2024/02/19 00:06:49;;;;;;;11.70;5.10;;;;;;;-10.82;100.00;139661.55;106729;1269;25402;-67
2024/02/19 00:09:35;;;;;;;10.10;4.80;;;;;;;-10.87;100.00;139648.03;106721;1269;25318;-65
2024/02/19 00:12:21;;;;;;;13.10;4.80;;;;;;;-10.95;100.00;139629.81;106697;1266;25368;-67
2024/02/19 00:15:08;;;;;;;8.10;3.40;;;;;;;-11.01;100.00;139613.80;106670;1275;25362;-64
2024/02/19 00:17:53;;;;;;;8.30;4.10;;;;;;;-11.06;100.00;139601.03;106758;1268;25439;-67
2024/02/19 00:20:39;;;;;;;8.40;4.20;;;;;;;-11.09;100.00;139594.89;106737;1275;25367;-65
2024/02/19 00:23:26;;;;;;;8.80;4.00;;;;;;;-11.10;100.00;139593.41;106716;1266;25405;-64
2024/02/19 00:26:13;;;;;;;10.90;4.90;;;;;;;-11.09;100.00;139595.13;106712;1268;25488;-62
2024/02/19 00:28:59;;;;;;;12.00;4.20;;;;;;;-11.11;100.00;139590.45;106688;1277;25488;-62
2024/02/19 00:31:44;;;;;;;11.60;4.00;;;;;;;-11.14;100.00;139584.06;106705;1276;25482;-62
2024/02/19 00:34:30;;;;;;;8.30;4.50;;;;;;;-11.17;100.00;139577.66;106676;1269;25341;-60
2024/02/19 00:37:16;;;;;;;12.40;4.70;;;;;;;-11.22;100.00;139565.59;106716;1269;25395;-65
2024/02/19 00:40:04;;;;;;;12.50;5.10;;;;;;;-11.26;100.00;139555.30;106705;1269;25460;-61
2024/02/19 00:42:50;;;;;;;10.60;4.60;;;;;;;-11.30;100.00;139544.72;106712;1277;25347;-65
2024/02/19 00:45:36;;;;;;;9.20;4.50;;;;;;;-11.31;100.00;139541.27;106699;1269;25402;-63
2024/02/19 00:48:22;;;;;;;11.60;4.30;;;;;;;-11.31;100.00;139541.77;106703;1269;25456;-64
2024/02/19 00:51:08;;;;;;;10.30;4.30;;;;;;;-11.29;100.00;139546.44;106713;1272;25366;-63
2024/02/19 00:53:53;;;;;;;10.80;4.40;;;;;;;-11.30;100.00;139544.70;106697;1268;25441;-65
2024/02/19 00:56:39;;;;;;;7.60;4.40;;;;;;;-11.30;100.00;139545.70;106740;1269;25845;-61
2024/02/19 00:59:25;;;;;;;9.90;4.60;;;;;;;-11.32;100.00;139540.53;106674;1271;25331;-64
2024/02/19 01:02:10;;;;;;;9.20;4.40;;;;;;;-11.35;100.00;139532.16;106721;1268;25408;-65
2024/02/19 01:04:56;;;;;;;10.40;4.40;;;;;;;-11.40;100.00;139521.83;106696;1268;25411;-64
2024/02/19 01:07:42;;;;;;;8.20;3.70;;;;;;;-11.44;100.00;139511.75;106712;1268;25491;-65
2024/02/19 01:10:28;;;;;;;9.80;4.20;;;;;;;-11.45;100.00;139510.02;106747;1269;25345;-67
2024/02/19 01:13:13;;;;;;;9.50;4.90;;;;;;;-11.44;100.00;139512.00;106739;1269;25356;-64
2024/02/19 01:15:59;;;;;;;10.80;4.60;;;;;;;-11.43;100.00;139513.70;106702;1276;25407;-65
2024/02/19 01:18:45;;;;;;;12.00;5.30;;;;;;;-11.43;100.00;139512.47;106761;1270;22529;-64
2024/02/19 01:21:31;;;;;;;12.70;5.50;;;;;;;-11.45;100.00;139508.80;106739;1269;25539;-65
2024/02/19 01:24:17;;;;;;;11.00;5.90;;;;;;;-11.50;100.00;139496.52;106717;1269;25363;-62
2024/02/19 01:27:03;;;;;;;11.40;4.70;;;;;;;-11.56;100.00;139483.47;106738;1269;25328;-64
2024/02/19 01:29:50;;;;;;;11.50;5.20;;;;;;;-11.60;100.00;139472.91;106750;1276;25331;-67
2024/02/19 01:32:37;;;;;;;12.70;5.60;;;;;;;-11.64;100.00;139464.30;106727;1274;25356;-63
2024/02/19 01:35:22;;;;;;;16.80;7.00;;;;;;;-11.68;100.00;139452.97;106731;1273;25349;-64
2024/02/19 01:38:08;;;;;;;16.40;7.80;;;;;;;-11.71;100.00;139445.63;106742;1268;25419;-63
2024/02/19 01:40:54;;;;;;;17.10;9.50;;;;;;;-11.71;100.00;139447.59;106737;1266;25459;-63
2024/02/19 01:43:39;;;;;;;17.60;9.00;;;;;;;-11.68;100.00;139454.47;106727;1266;25357;-65
2024/02/19 01:46:27;;;;;;;18.90;9.50;;;;;;;-11.68;100.00;139453.00;106696;1269;25418;-65
2024/02/19 01:49:13;;;;;;;21.50;11.10;;;;;;;-11.70;100.00;139447.84;106751;1275;25395;-63
2024/02/19 01:52:00;;;;;;;19.00;9.40;;;;;;;-11.76;100.00;139434.08;106741;1269;25525;-64
2024/02/19 01:54:48;;;;;;;18.80;7.80;;;;;;;-11.81;100.00;139422.28;106723;1273;25366;-66
2024/02/19 01:57:33;;;;;;;17.30;8.60;;;;;;;-11.83;100.00;139416.59;106727;1269;25388;-65
2024/02/19 02:00:20;;;;;;;12.90;6.30;;;;;;;-11.82;100.00;139419.31;106757;1268;25712;-63
2024/02/19 02:03:09;;;;;;;16.30;5.90;;;;;;;-11.81;100.00;139422.28;106702;1269;25331;-62
2024/02/19 02:05:55;;;;;;;9.90;5.10;;;;;;;-11.77;100.00;139432.34;106724;1269;25393;-64
2024/02/19 02:08:41;;;;;;;17.80;7.80;;;;;;;-11.73;100.00;139441.67;106741;1276;25403;-67
2024/02/19 02:11:27;;;;;;;15.30;7.20;;;;;;;-11.72;100.00;139445.38;106732;1269;25511;-64
2024/02/19 02:14:12;;;;;;;18.30;7.40;;;;;;;-11.71;100.00;139446.13;106673;1266;25490;-65
2024/02/19 02:16:58;;;;;;;18.00;7.50;;;;;;;-11.72;100.00;139444.41;106409;1269;25328;-65
2024/02/19 02:19:44;;;;;;;13.60;5.40;;;;;;;-11.72;100.00;139443.17;106556;1269;25335;-63
2024/02/19 02:22:30;;;;;;;10.30;4.70;;;;;;;-11.73;100.00;139441.91;106543;1269;25436;-63
2024/02/19 02:25:16;;;;;;;13.80;5.80;;;;;;;-11.71;100.00;139447.59;106677;1276;25561;-62
2024/02/19 02:28:02;;;;;;;12.40;5.20;;;;;;;-11.65;100.00;139460.13;106754;1269;25580;-64
2024/02/19 02:30:49;;;;;;;12.40;4.30;;;;;;;-11.59;100.00;139475.34;106695;1269;25341;-65
2024/02/19 02:33:34;;;;;;;11.30;4.70;;;;;;;-11.51;100.00;139493.08;106726;1271;25340;-63
2024/02/19 02:36:20;;;;;;;11.20;4.10;;;;;;;-11.45;100.00;139507.33;106715;1269;25408;-62
2024/02/19 02:39:07;;;;;;;7.30;3.50;;;;;;;-11.43;100.00;139514.44;106693;1269;25386;-64
2024/02/19 02:41:52;;;;;;;8.40;4.50;;;;;;;-11.43;100.00;139514.45;106729;1272;25429;-65
2024/02/19 02:44:38;;;;;;;12.10;4.80;;;;;;;-11.44;100.00;139511.75;106729;1269;25315;-63
2024/02/19 02:47:24;;;;;;;9.00;4.70;;;;;;;-11.43;100.00;139512.25;106715;1276;25362;-64
2024/02/19 02:50:09;;;;;;;13.90;6.20;;;;;;;-11.43;100.00;139512.48;106758;1276;25332;-62
2024/02/19 02:52:55;;;;;;;13.80;5.30;;;;;;;-11.40;100.00;139521.34;106734;1276;25397;-62
2024/02/19 02:55:42;;;;;;;15.50;6.00;;;;;;;-11.34;100.00;139534.39;106712;1273;25412;-63
2024/02/19 02:58:28;;;;;;;13.10;5.60;;;;;;;-11.30;100.00;139543.72;106733;1276;25351;-62
2024/02/19 03:01:20;;;;;;;14.30;6.70;;;;;;;-11.29;100.00;139547.17;106727;1276;25395;-63
2024/02/19 03:04:06;;;;;;;20.20;7.70;;;;;;;-11.28;100.00;139550.13;106723;1269;25379;-62
2024/02/19 03:06:52;;;;;;;18.10;7.40;;;;;;;-11.31;100.00;139542.25;106706;1273;25433;-63
2024/02/19 03:09:38;;;;;;;23.40;10.40;;;;;;;-11.35;100.00;139533.16;106728;1269;25488;-62
2024/02/19 03:12:23;;;;;;;17.90;8.60;;;;;;;-11.36;100.00;139530.20;106742;1276;25408;-62
2024/02/19 03:15:09;;;;;;;19.30;7.40;;;;;;;-11.33;100.00;139536.34;106732;1276;25321;-63
2024/02/19 03:17:55;;;;;;;18.40;8.00;;;;;;;-11.25;100.00;139556.52;106705;1276;25331;-65
2024/02/19 03:20:41;;;;;;;17.70;8.80;;;;;;;-11.18;100.00;139575.45;106705;1277;25467;-64
2024/02/19 03:23:27;;;;;;;22.60;9.30;;;;;;;-11.16;100.00;139579.88;106703;1276;25442;-63
2024/02/19 03:26:12;;;;;;;32.70;15.20;;;;;;;-11.15;100.00;139581.09;106722;1275;25408;-62
2024/02/19 03:28:58;;;;;;;39.20;15.80;;;;;;;-11.12;100.00;139586.75;106745;1269;25375;-65
2024/02/19 03:31:44;;;;;;;31.00;13.80;;;;;;;-11.12;100.00;139586.53;106750;1269;25554;-66
2024/02/19 03:34:30;;;;;;;28.20;10.20;;;;;;;-11.16;100.00;139579.39;106732;1276;26071;-64
2024/02/19 03:37:15;;;;;;;19.60;8.40;;;;;;;-11.20;100.00;139570.78;106724;1275;25354;-65
2024/02/19 03:40:03;;;;;;;23.20;9.60;;;;;;;-11.17;100.00;139576.92;106730;1277;25390;-64
2024/02/19 03:42:49;;;;;;;24.00;9.10;;;;;;;-11.11;100.00;139590.70;106723;1277;25387;-64
2024/02/19 03:45:34;;;;;;;22.80;9.70;;;;;;;-11.06;100.00;139602.97;106733;1275;25440;-63
2024/02/19 03:48:20;;;;;;;21.20;8.70;;;;;;;-11.00;100.00;139617.28;106724;1276;25331;-63
2024/02/19 03:51:06;;;;;;;26.40;10.40;;;;;;;-10.96;100.00;139627.34;106716;1275;25331;-65
2024/02/19 03:53:52;;;;;;;23.40;10.50;;;;;;;-10.96;100.00;139626.84;106717;1273;25393;-62
2024/02/19 03:56:37;;;;;;;17.10;8.10;;;;;;;-10.97;100.00;139623.16;106724;1276;25393;-65
2024/02/19 03:59:23;;;;;;;21.60;10.60;;;;;;;-11.02;100.00;139611.84;106755;1277;25446;-64
2024/02/19 04:02:08;;;;;;;25.70;11.10;;;;;;;-11.08;100.00;139597.59;106733;1268;25398;-61
2024/02/19 04:04:54;;;;;;;17.50;8.40;;;;;;;-11.14;100.00;139583.09;106741;1272;25491;-62
2024/02/19 04:07:40;;;;;;;25.60;11.70;;;;;;;-11.19;100.00;139570.78;106737;1267;25355;-64
2024/02/19 04:10:26;;;;;;;23.20;9.50;;;;;;;-11.23;100.00;139562.91;106723;1276;25341;-62
2024/02/19 04:13:12;;;;;;;24.90;10.80;;;;;;;-11.24;100.00;139560.22;106746;1276;25355;-65
2024/02/19 04:15:57;;;;;;;23.70;10.40;;;;;;;-11.24;100.00;139560.45;106724;1267;25427;-64
2024/02/19 04:18:43;;;;;;;13.80;6.80;;;;;;;-11.25;100.00;139557.73;106727;1276;25535;-65
2024/02/19 04:21:29;;;;;;;20.50;9.90;;;;;;;-11.29;100.00;139546.92;106730;1267;25485;-63
2024/02/19 04:24:16;;;;;;;16.50;7.20;;;;;;;-11.32;100.00;139539.30;106715;1276;25343;-64
2024/02/19 04:27:01;;;;;;;19.00;8.80;;;;;;;-11.39;100.00;139523.55;106714;1269;25399;-63
2024/02/19 04:29:47;;;;;;;17.80;7.50;;;;;;;-11.44;100.00;139511.02;106704;1276;25363;-63
2024/02/19 04:32:33;;;;;;;19.20;9.40;;;;;;;-11.49;100.00;139497.97;106725;1268;26020;-62
2024/02/19 04:35:19;;;;;;;18.40;7.50;;;;;;;-11.52;100.00;139490.34;106702;1273;25347;-63
2024/02/19 04:38:05;;;;;;;16.90;8.90;;;;;;;-11.52;100.00;139490.59;106735;1264;25536;-64
2024/02/19 04:40:51;;;;;;;20.20;9.60;;;;;;;-11.50;100.00;139496.75;106722;1277;25472;-62
2024/02/19 04:43:37;;;;;;;19.00;8.50;;;;;;;-11.47;100.00;139502.66;106751;1268;25375;-64
2024/02/19 04:46:22;;;;;;;19.50;9.80;;;;;;;-11.48;100.00;139502.66;106693;1276;25328;-62
2024/02/19 04:49:08;;;;;;;17.40;7.60;;;;;;;-11.50;100.00;139497.23;106723;1277;25424;-64
2024/02/19 04:51:54;;;;;;;18.10;8.50;;;;;;;-11.51;100.00;139492.81;106712;1267;25328;-64
2024/02/19 04:54:40;;;;;;;11.60;6.50;;;;;;;-11.53;100.00;139488.39;106706;1272;25328;-66
2024/02/19 04:57:25;;;;;;;17.40;8.70;;;;;;;-11.54;100.00;139487.41;106707;1276;25351;-63
2024/02/19 05:00:12;;;;;;;18.90;7.60;;;;;;;-11.53;100.00;139489.61;106534;1267;25320;-64
2024/02/19 05:02:57;;;;;;;16.90;7.50;;;;;;;-11.48;100.00;139499.97;106571;1264;25480;-64
2024/02/19 05:05:43;;;;;;;14.10;6.60;;;;;;;-11.42;100.00;139515.17;106593;1274;25349;-66
2024/02/19 05:08:29;;;;;;;15.80;8.40;;;;;;;-11.36;100.00;139530.20;106586;1270;25360;-65
2024/02/19 05:11:15;;;;;;;15.50;8.40;;;;;;;-11.30;100.00;139543.72;106683;1271;25337;-66
2024/02/19 05:14:01;;;;;;;14.30;7.20;;;;;;;-11.25;100.00;139557.50;106744;1260;25342;-65
2024/02/19 05:16:47;;;;;;;13.30;6.70;;;;;;;-11.18;100.00;139574.22;106710;1276;25331;-66
2024/02/19 05:19:33;;;;;;;20.70;9.80;;;;;;;-11.11;100.00;139589.72;106714;1274;25450;-64
2024/02/19 05:22:19;;;;;;;14.60;7.40;;;;;;;-11.02;100.00;139611.11;106726;1267;25348;-63
2024/02/19 05:25:07;;;;;;;14.10;7.10;;;;;;;-10.87;100.00;139647.28;106728;1276;25412;-62
2024/02/19 05:27:53;;;;;;;13.10;5.30;;;;;;;-10.42;100.00;139755.80;106646;1276;25525;-64
2024/02/19 05:30:40;;;;;;;16.80;6.90;;;;;;;-9.52;100.00;139973.42;106588;1267;25392;-64
2024/02/19 05:33:25;;;;;;;15.50;8.00;;;;;;;-9.19;100.00;140052.03;106653;1267;25328;-63
2024/02/19 05:36:12;;;;;;;16.30;7.80;;;;;;;-9.23;100.00;140041.92;106581;1277;25321;-64
2024/02/19 05:38:59;;;;;;;20.00;10.10;;;;;;;-9.28;100.00;140029.63;106609;1267;26503;-65
2024/02/19 05:41:46;;;;;;;14.20;6.70;;;;;;;-9.31;100.00;140023.44;106643;1268;25370;-64
2024/02/19 05:44:31;;;;;;;18.80;7.60;;;;;;;-8.93;100.00;140115.63;106754;1267;25349;-64
2024/02/19 05:47:17;;;;;;;14.80;6.40;;;;;;;-7.33;99.87;140500.17;106734;1276;25341;-65
2024/02/19 05:50:03;;;;;;;19.30;8.10;;;;;;;-5.52;91.16;140938.52;106742;1267;25331;-64
2024/02/19 05:52:49;;;;;;;19.50;8.20;;;;;;;-3.86;81.12;141338.50;106687;1270;23902;-63
2024/02/19 05:55:35;;;;;;;14.20;7.60;;;;;;;-2.36;73.40;141702.86;106709;1269;25468;-65
2024/02/19 05:58:21;;;;;;;15.80;9.00;;;;;;;-2.60;66.92;141643.59;106747;1267;25488;-67
2024/02/19 06:01:07;;;;;;;14.70;6.90;;;;;;;-3.69;67.32;141379.59;106739;1267;25339;-67
2024/02/19 06:03:53;;;;;;;13.80;6.70;;;;;;;-4.48;66.19;141188.41;106731;1267;25331;-67
2024/02/19 06:06:40;;;;;;;16.00;7.30;;;;;;;-5.11;67.50;141036.70;106733;1267;24229;-64
2024/02/19 06:09:26;;;;;;;11.60;6.50;;;;;;;-5.34;68.89;140980.28;106754;1268;25478;-67
2024/02/19 06:12:11;;;;;;;11.10;5.60;;;;;;;-5.54;67.59;140934.03;106717;1266;25331;-64
2024/02/19 06:14:56;;;;;;;13.20;5.70;;;;;;;-5.68;67.27;140899.66;106706;1270;25350;-66
2024/02/19 06:17:42;;;;;;;11.80;4.60;;;;;;;-5.43;66.04;140958.28;106795;1267;25366;-66
2024/02/19 06:20:28;;;;;;;11.50;5.10;;;;;;;-4.89;63.61;141089.91;106623;1267;25422;-63
2024/02/19 06:23:15;;;;;;;8.30;4.80;;;;;;;-4.14;63.73;141272.84;106675;1269;25350;-63
2024/02/19 06:26:01;;;;;;;15.60;5.60;;;;;;;-3.53;59.43;141417.52;106645;1269;25420;-65
2024/02/19 06:28:46;;;;;;;10.50;5.80;;;;;;;-3.74;58.94;141368.20;106617;1267;25335;-67
2024/02/19 06:31:32;;;;;;;16.20;6.60;;;;;;;-4.12;59.24;141275.08;106716;1269;25347;-63
2024/02/19 06:34:18;;;;;;;10.70;5.60;;;;;;;-4.28;58.09;141238.42;106703;1271;25351;-65
2024/02/19 06:37:04;;;;;;;13.70;6.70;;;;;;;-4.63;58.26;141151.77;106725;1267;25491;-64
2024/02/19 06:39:49;;;;;;;14.60;6.10;;;;;;;-5.00;59.29;141064.17;106741;1267;25349;-64
2024/02/19 06:42:35;;;;;;;12.00;5.90;;;;;;;-5.03;59.60;141055.75;106740;1267;25348;-62
2024/02/19 06:45:20;;;;;;;16.60;8.60;;;;;;;-4.56;58.57;141170.83;106754;1276;25451;-64
2024/02/19 06:48:06;;;;;;;19.50;7.60;;;;;;;-4.25;56.41;141246.34;106720;1264;22566;-64
2024/02/19 06:50:52;;;;;;;20.10;8.50;;;;;;;-4.02;55.93;141299.58;106745;1264;25338;-65
2024/02/19 06:53:37;;;;;;;14.70;7.90;;;;;;;-3.89;54.16;141332.78;106716;1266;25375;-63
2024/02/19 06:56:22;;;;;;;15.00;8.90;;;;;;;-3.65;54.41;141389.77;106762;1269;25465;-65
2024/02/19 06:59:08;;;;;;;15.90;8.80;;;;;;;-2.62;53.01;141639.63;106743;1261;25350;-64
2024/02/19 07:01:54;;;;;;;20.10;8.70;;;;;;;-1.30;52.29;141960.00;106737;1277;25394;-63
2024/02/19 07:04:40;;;;;;;15.90;7.80;;;;;;;0.18;46.12;142318.00;106699;1257;25353;-66
2024/02/19 07:07:27;;;;;;;16.60;8.20;;;;;;;0.38;45.54;142366.47;106718;1265;25349;-64
2024/02/19 07:10:13;;;;;;;17.20;9.30;;;;;;;1.72;43.88;142693.72;106708;1267;25341;-63
2024/02/19 07:12:59;;;;;;;17.90;9.00;;;;;;;3.61;40.97;143153.44;106720;1267;25341;-63
2024/02/19 07:15:45;;;;;;;16.00;7.40;;;;;;;5.02;37.07;143496.06;106725;1267;25404;-64
2024/02/19 07:18:31;;;;;;;15.80;7.70;;;;;;;5.17;34.02;143534.00;106734;1267;25337;-66
2024/02/19 07:21:20;;;;;;;15.70;7.60;;;;;;;5.05;34.28;143504.28;107074;1264;25328;-64
2024/02/19 07:24:06;;;;;;;16.40;7.30;;;;;;;5.14;34.05;143526.53;106682;1264;25329;-64
2024/02/19 07:26:52;;;;;;;14.20;6.60;;;;;;;5.52;31.67;143619.91;106720;1267;25470;-65
2024/02/19 07:29:38;;;;;;;19.30;9.30;;;;;;;4.64;30.91;143403.70;106698;1267;25407;-64
2024/02/19 07:32:23;;;;;;;15.20;8.40;;;;;;;3.76;32.69;143189.09;106897;1276;25331;-67
2024/02/19 07:35:10;;;;;;;14.20;6.60;;;;;;;3.82;32.84;143202.81;106884;1257;25360;-65
2024/02/19 07:37:57;;;;;;;19.90;8.60;;;;;;;4.03;32.35;143256.44;106883;1276;25620;-65
2024/02/19 07:40:42;;;;;;;19.20;7.30;;;;;;;4.41;31.58;143349.53;106883;1267;25360;-65
2024/02/19 07:43:28;;;;;;;13.40;6.40;;;;;;;4.14;30.35;143281.38;108462;1260;25359;-64
2024/02/19 07:46:14;;;;;;;12.60;5.70;;;;;;;3.28;29.86;143071.91;107789;1267;25345;-66
2024/02/19 07:49:00;;;;;;;10.80;3.80;;;;;;;2.81;30.31;142958.97;107023;1266;25372;-63
2024/02/19 07:51:46;;;;;;;8.20;3.30;;;;;;;2.83;30.42;142963.72;107230;1261;25092;-65
2024/02/19 07:54:32;;;;;;;10.00;3.70;;;;;;;2.74;29.56;142942.53;107188;1260;25356;-66
2024/02/19 07:57:17;;;;;;;13.80;5.60;;;;;;;2.73;30.19;142939.78;107117;1256;22533;-66
2024/02/19 08:00:05;;;;;;;13.60;4.00;;;;;;;3.46;30.04;143116.78;107085;1267;25430;-64
2024/02/19 08:02:50;;;;;;;10.80;4.30;;;;;;;4.21;28.83;143300.63;107040;1257;24057;-68
2024/02/19 08:05:36;;;;;;;9.80;4.50;;;;;;;4.54;27.71;143379.22;106953;1266;25426;-67
2024/02/19 08:08:22;;;;;;;9.50;4.20;;;;;;;5.45;27.26;143600.95;107114;1266;25356;-65
2024/02/19 08:11:08;;;;;;;9.00;4.10;;;;;;;6.25;26.53;143797.41;107165;1254;25423;-64
2024/02/19 08:13:53;;;;;;;12.00;4.70;;;;;;;7.02;25.54;143985.67;106924;1269;25351;-65
2024/02/19 08:16:39;;;;;;;9.70;5.40;;;;;;;7.22;24.76;144034.70;107406;1265;25375;-63
2024/02/19 08:19:34;;;;;;;10.10;4.80;;;;;;;7.24;25.14;144038.94;107172;1261;25377;-66
2024/02/19 08:22:20;;;;;;;13.30;4.50;;;;;;;7.60;24.92;144126.52;107931;1260;25347;-65
2024/02/19 08:25:06;;;;;;;7.00;3.30;;;;;;;7.51;24.87;144104.72;106973;1260;25331;-70
2024/02/19 08:27:52;;;;;;;6.50;2.40;;;;;;;7.28;23.32;144049.72;107309;1259;22726;-65
2024/02/19 08:30:40;;;;;;;7.30;2.00;;;;;;;6.57;23.54;143874.63;106901;1270;25363;-68
2024/02/19 08:33:26;;;;;;;13.50;3.20;;;;;;;6.67;23.14;143899.89;106582;1273;25350;-68
2024/02/19 08:36:12;;;;;;;8.40;4.00;;;;;;;6.25;23.56;143795.63;106587;1268;25481;-67
2024/02/19 08:38:58;;;;;;;10.40;4.00;;;;;;;5.25;24.41;143553.25;106590;1267;25420;-66
2024/02/19 08:41:44;;;;;;;7.60;3.60;;;;;;;5.29;24.88;143561.98;107155;1267;25354;-68
2024/02/19 08:44:30;;;;;;;6.30;3.70;;;;;;;4.96;24.25;143482.84;106762;1274;22526;-68
2024/02/19 08:47:17;;;;;;;7.50;3.80;;;;;;;4.16;25.39;143286.64;106855;1266;22536;-68
2024/02/19 08:50:04;;;;;;;7.50;3.00;;;;;;;3.06;25.43;143020.30;106922;1270;23258;-65
2024/02/19 08:52:50;;;;;;;6.00;2.60;;;;;;;1.56;26.91;142654.13;106869;1263;25362;-66
2024/02/19 08:55:36;;;;;;;6.30;2.80;;;;;;;0.56;27.80;142411.00;106872;1256;22541;-64
2024/02/19 08:58:22;;;;;;;7.00;2.70;;;;;;;0.13;29.02;142307.81;107124;1267;25328;-67
2024/02/19 09:01:10;;;;;;;8.90;4.10;;;;;;;-0.19;29.24;142229.75;106952;1258;23254;-68
2024/02/19 09:03:56;;;;;;;10.60;3.60;;;;;;;-1.27;30.50;141968.17;107541;1268;24208;-65
2024/02/19 09:06:43;;;;;;;7.60;3.50;;;;;;;-2.20;32.01;141739.83;107003;1267;25359;-67
2024/02/19 09:09:30;;;;;;;9.30;4.00;;;;;;;-2.54;32.74;141657.47;107049;1266;23713;-67
2024/02/19 09:12:16;;;;;;;10.70;5.00;;;;;;;-2.43;32.99;141686.48;106948;1273;25399;-66
2024/02/19 09:15:04;;;;;;;12.40;5.00;;;;;;;-2.28;32.91;141721.22;107041;1277;22619;-64
2024/02/19 09:17:50;;;;;;;9.60;3.90;;;;;;;-2.45;33.06;141681.03;106899;1271;25379;-65
2024/02/19 09:20:35;;;;;;;12.20;4.40;;;;;;;-3.34;34.03;141464.09;107262;1263;25792;-67
2024/02/19 09:23:21;;;;;;;12.20;4.50;;;;;;;-3.96;35.32;141315.92;107359;1265;22909;-68
2024/02/19 09:26:13;;;;;;;8.60;4.50;;;;;;;-4.03;35.55;141297.84;106780;1260;25386;-65
2024/02/19 09:28:58;;;;;;;;;;;;;;;-4.03;35.24;141297.11;107717;1263;25437;-65
2024/02/19 09:31:44;;;;;;;8.30;3.70;;;;;;;-4.71;35.63;141133.45;106956;1262;25404;-64
2024/02/19 09:34:30;;;;;;;11.70;4.10;;;;;;;-4.98;36.21;141068.11;106841;1256;25414;-68
2024/02/19 09:37:16;;;;;;;9.40;4.10;;;;;;;-4.77;36.63;141118.84;106528;1256;394070;-64
2024/02/19 09:40:04;;;;;;;11.80;4.70;;;;;;;-4.84;35.90;141101.53;106892;1257;25471;-67
2024/02/19 09:42:51;;;;;;;13.00;5.30;;;;;;;-5.41;36.19;140963.47;106877;1271;25499;-65
2024/02/19 09:45:37;;;;;;;11.90;4.40;;;;;;;-5.80;36.26;140870.73;107151;1268;22537;-63
2024/02/19 09:48:23;;;;;;;14.40;4.10;;;;;;;-6.10;36.81;140796.63;106963;1260;25339;-64
2024/02/19 09:51:15;;;;;;;6.30;3.00;;;;;;;-6.09;36.84;140798.84;106940;1256;25379;-66
2024/02/19 09:54:18;;;;;;;9.70;3.40;;;;;;;-6.07;36.39;140805.28;106810;1259;25351;-64
2024/02/19 09:57:09;;;;;;;10.20;2.80;;;;;;;-6.14;36.10;140787.72;106926;1259;25409;-66
2024/02/19 09:59:58;;;;;;;9.60;3.30;;;;;;;-6.33;36.40;140741.00;107301;1259;25331;-65
2024/02/19 10:02:45;;;;;;;12.30;3.40;;;;;;;-6.52;36.92;140696.28;107660;1270;25370;-66
2024/02/19 10:05:30;;;;;;;7.80;3.50;;;;;;;-6.60;37.24;140676.28;107277;1259;23137;-69
2024/02/19 10:08:17;;;;;;;8.30;2.70;;;;;;;-6.76;37.72;140637.48;107129;1259;25379;-66
2024/02/19 10:11:10;;;;;;;10.70;3.00;;;;;;;-6.79;38.73;140631.55;107549;1263;25346;-68
2024/02/19 10:13:56;;;;;;;8.70;3.50;;;;;;;-6.61;38.17;140674.78;107057;1261;22875;-67
2024/02/19 10:16:49;;;;;;;8.80;3.60;;;;;;;-6.42;38.24;140720.00;106987;1270;25397;-67
2024/02/19 10:19:36;;;;;;;7.90;4.00;;;;;;;-6.34;38.10;140740.02;106798;1260;25407;-65
2024/02/19 10:22:22;;;;;;;14.80;4.70;;;;;;;-6.44;39.48;140715.28;107044;1269;23491;-65
2024/02/19 10:25:08;;;;;;;12.60;4.70;;;;;;;-6.71;39.93;140651.06;106946;1259;25332;-65
2024/02/19 10:27:55;;;;;;;11.60;4.40;;;;;;;-6.81;40.19;140627.09;107038;1256;26484;-66
2024/02/19 10:30:43;;;;;;;13.80;5.10;;;;;;;-6.67;40.43;140658.97;106796;1256;26070;-64
2024/02/19 10:33:29;;;;;;;10.10;4.30;;;;;;;-6.54;40.42;140690.84;107084;1259;25348;-66
2024/02/19 10:36:19;;;;;;;8.60;3.90;;;;;;;-6.51;40.27;140699.00;106904;1265;23408;-69
2024/02/19 10:39:05;;;;;;;11.80;5.00;;;;;;;-6.57;40.30;140683.44;106878;1256;26600;-65
2024/02/19 10:41:53;;;;;;;16.90;6.00;;;;;;;-6.61;41.08;140673.78;107227;1262;25341;-67
2024/02/19 10:44:41;;;;;;;13.80;5.70;;;;;;;-6.53;40.75;140694.05;107004;1260;25433;-66
2024/02/19 10:47:27;;;;;;;9.40;4.10;;;;;;;-6.46;40.66;140711.34;106921;1270;25348;-67
2024/02/19 10:50:18;;;;;;;10.20;3.90;;;;;;;-6.25;39.82;140761.03;106955;1266;23296;-66
2024/02/19 10:53:05;;;;;;;9.70;3.70;;;;;;;-6.09;39.48;140801.06;106882;1262;22644;-69
2024/02/19 10:55:53;;;;;;;8.00;3.40;;;;;;;-6.02;38.75;140816.41;106962;1259;25367;-67
2024/02/19 10:59:09;;;;;;;9.30;2.70;;;;;;;-6.05;38.33;140808.97;107315;1259;25658;-68
2024/02/19 11:02:05;;;;;;;;;;;;;;;-6.10;38.44;140797.86;107264;1260;25403;-66
2024/02/19 11:04:51;;;;;;;7.40;3.20;;;;;;;-6.17;38.18;140780.78;107042;1259;25084;-65
2024/02/19 11:07:40;;;;;;;7.90;3.00;;;;;;;-6.29;38.28;140751.38;106871;1266;25555;-65
2024/02/19 11:10:39;;;;;;;7.80;3.50;;;;;;;-6.39;38.13;140727.16;106920;1262;22534;-65
2024/02/19 11:13:26;;;;;;;8.80;3.00;;;;;;;-6.38;38.42;140730.13;107428;1262;24228;-65
2024/02/19 11:16:16;;;;;;;5.50;2.80;;;;;;;-6.39;38.11;140726.66;107112;1265;25400;-68
2024/02/19 11:19:02;;;;;;;6.40;2.50;;;;;;;-6.21;38.12;140770.66;107620;1259;25453;-66
2024/02/19 11:21:48;;;;;;;6.40;2.20;;;;;;;-6.11;37.54;140795.36;107192;1263;23324;-66
2024/02/19 11:24:35;;;;;;;8.80;2.50;;;;;;;-5.95;37.75;140834.66;107541;1263;22544;-67
2024/02/19 11:27:20;;;;;;;5.80;2.10;;;;;;;-5.69;37.39;140895.95;107184;1262;25359;-66
2024/02/19 11:30:09;;;;;;;5.30;2.20;;;;;;;-5.52;36.72;140938.97;107145;1270;25380;-66
2024/02/19 11:33:06;;;;;;;6.70;2.30;;;;;;;-5.58;36.39;140923.66;107020;1266;25529;-67
2024/02/19 11:35:57;;;;;;;9.00;2.80;;;;;;;-5.83;35.88;140863.33;107289;1260;25373;-65
2024/02/19 11:38:43;;;;;;;5.40;2.20;;;;;;;-6.06;36.30;140806.28;106962;1259;25293;-67
2024/02/19 11:41:29;;;;;;;7.90;2.50;;;;;;;-5.98;36.46;140827.25;106930;1259;25398;-65
2024/02/19 11:44:16;;;;;;;4.50;2.20;;;;;;;-5.81;36.12;140867.28;107633;1265;25341;-69
2024/02/19 11:47:03;;;;;;;6.40;2.20;;;;;;;-5.67;36.04;140901.88;107254;1269;22566;-67
2024/02/19 11:49:50;;;;;;;5.50;2.40;;;;;;;-5.67;35.68;140901.63;107212;1259;23764;-67
2024/02/19 11:52:41;;;;;;;5.60;2.10;;;;;;;-5.65;35.76;140906.84;107095;1273;25328;-67
2024/02/19 11:55:30;;;;;;;7.90;2.40;;;;;;;-5.73;36.02;140886.56;107292;1259;25389;-69
2024/02/19 11:58:17;;;;;;;8.50;2.60;;;;;;;-5.69;36.41;140897.17;107227;1260;25372;-70
2024/02/19 12:01:04;;;;;;;11.20;3.70;;;;;;;-5.70;36.88;140895.20;107449;1257;24266;-69
2024/02/19 12:03:51;;;;;;;4.40;2.00;;;;;;;-5.70;36.90;140894.47;107241;1256;25453;-69
2024/02/19 12:06:40;;;;;;;6.40;2.60;;;;;;;-5.85;37.23;140858.38;106877;1259;24208;-65
2024/02/19 12:09:26;;;;;;;7.70;3.30;;;;;;;-5.94;37.79;140836.91;107150;1254;25567;-68
2024/02/19 12:12:13;;;;;;;6.40;2.80;;;;;;;-5.92;37.85;140843.05;106923;1259;24305;-67
2024/02/19 12:14:59;;;;;;;8.50;2.80;;;;;;;-5.71;38.40;140891.52;106868;1262;25481;-66
2024/02/19 12:17:48;;;;;;;9.80;3.20;;;;;;;-5.41;37.97;140964.95;106813;1256;24367;-68
2024/02/19 12:20:34;;;;;;;8.20;2.40;;;;;;;-5.38;37.83;140972.38;106793;1260;25516;-68
2024/02/19 12:23:20;;;;;;;7.30;2.70;;;;;;;-5.18;37.73;141019.61;107299;1254;25541;-67
2024/02/19 12:26:06;;;;;;;8.70;3.60;;;;;;;-5.17;37.53;141022.84;107151;1259;25481;-67
2024/02/19 12:28:55;;;;;;;6.80;2.70;;;;;;;-5.05;37.68;141051.05;106927;1256;22523;-68
2024/02/19 12:31:41;;;;;;;8.20;2.30;;;;;;;-5.21;37.62;141013.44;107030;1263;23516;-67
2024/02/19 12:34:27;;;;;;;6.00;2.80;;;;;;;-5.32;37.85;140986.47;107149;1259;23221;-68